createdAt,value
2019-06-20T00:00:40.136Z,94.50
2019-06-20T00:05:35.014Z,94.60
2019-06-20T00:10:29.616Z,94.70
2019-06-20T00:15:23.999Z,94.10
2019-06-20T00:20:21.061Z,94.30
2019-06-20T00:25:15.108Z,95.30
2019-06-20T00:30:11.416Z,95.50
2019-06-20T00:35:07.639Z,96.10
2019-06-20T00:40:01.840Z,95.90
2019-06-20T00:44:55.597Z,96.20
2019-06-20T00:49:49.400Z,96.70
2019-06-20T00:54:43.543Z,96.80
2019-06-20T00:59:37.799Z,97.70
2019-06-20T01:04:30.492Z,97.50
2019-06-20T01:09:23.116Z,98.00
2019-06-20T01:14:17.557Z,98.10
2019-06-20T01:19:13.825Z,98.40
2019-06-20T01:24:07.612Z,98.20
2019-06-20T01:29:01.910Z,98.80
2019-06-20T01:33:56.765Z,98.90
2019-06-20T01:44:03.657Z,99.20
2019-06-20T01:48:57.420Z,99.60
2019-06-20T01:53:51.341Z,99.90
2019-06-20T01:58:45.068Z,99.90
2019-06-20T02:03:38.981Z,99.90
2019-06-20T02:08:32.676Z,99.90
2019-06-20T02:13:27.081Z,99.90
2019-06-20T02:18:21.077Z,99.90
2019-06-20T02:23:16.570Z,99.90
2019-06-20T02:28:10.811Z,99.90
2019-06-20T02:33:07.847Z,99.90
2019-06-20T02:38:01.790Z,99.90
2019-06-20T02:42:55.707Z,99.90
2019-06-20T02:47:49.498Z,99.90
2019-06-20T02:52:43.387Z,99.90
2019-06-20T02:57:37.160Z,99.90
2019-06-20T03:02:31.008Z,99.90
2019-06-20T03:07:24.763Z,99.90
2019-06-20T03:12:18.639Z,99.90
2019-06-20T03:17:12.487Z,99.90
2019-06-20T03:22:06.520Z,99.90
2019-06-20T03:27:01.240Z,99.90
2019-06-20T03:31:55.471Z,99.90
2019-06-20T03:36:49.971Z,99.90
2019-06-20T03:41:44.241Z,99.90
2019-06-20T03:46:38.018Z,99.90
2019-06-20T03:51:32.059Z,99.90
2019-06-20T03:56:25.832Z,99.90
2019-06-20T04:01:19.696Z,99.90
2019-06-20T04:06:14.199Z,99.90
2019-06-20T04:16:02.892Z,99.90
2019-06-20T04:20:56.666Z,98.30
2019-06-20T04:25:50.787Z,95.30
2019-06-20T04:30:45.801Z,92.20
2019-06-20T04:35:41.196Z,90.30
2019-06-20T04:40:35.027Z,85.00
2019-06-20T04:45:46.011Z,80.00
2019-06-20T04:50:39.779Z,75.90
2019-06-20T04:55:33.795Z,71.70
2019-06-20T05:00:27.995Z,70.40
2019-06-20T05:05:24.596Z,71.70
2019-06-20T05:10:19.036Z,77.20
2019-06-20T05:15:15.205Z,82.30
2019-06-20T05:20:09.051Z,82.80
2019-06-20T05:25:07.513Z,80.30
2019-06-20T05:30:04.794Z,80.30
2019-06-20T05:39:51.840Z,71.60
2019-06-20T05:44:45.716Z,75.80
2019-06-20T05:49:40.243Z,80.70
2019-06-20T05:54:33.986Z,84.10
2019-06-20T05:59:32.568Z,86.30
2019-06-20T06:04:27.199Z,82.80
2019-06-20T06:09:23.756Z,74.70
2019-06-20T06:14:18.568Z,73.60
2019-06-20T06:19:12.576Z,78.00
2019-06-20T06:24:06.900Z,82.80
2019-06-20T06:29:02.691Z,87.90
2019-06-20T06:33:56.544Z,91.70
2019-06-20T06:38:51.522Z,92.80
2019-06-20T06:44:07.595Z,93.60
2019-06-20T06:49:03.129Z,94.00
2019-06-20T06:53:57.787Z,94.30
2019-06-20T06:58:51.543Z,95.40
2019-06-20T07:03:45.391Z,95.00
2019-06-20T07:08:39.162Z,94.90
2019-06-20T07:13:34.639Z,94.00
2019-06-20T07:18:44.009Z,91.50
2019-06-20T07:23:42.121Z,88.50
2019-06-20T07:28:35.800Z,87.80
2019-06-20T07:38:23.672Z,85.70
2019-06-20T07:43:17.429Z,91.60
2019-06-20T07:48:13.157Z,92.70
2019-06-20T07:53:06.674Z,91.60
2019-06-20T07:58:04.501Z,91.30
2019-06-20T08:02:58.402Z,90.30
2019-06-20T08:07:54.574Z,84.80
2019-06-20T08:12:52.889Z,84.00
2019-06-20T08:17:47.824Z,80.90
2019-06-20T08:23:00.917Z,74.40
2019-06-20T08:27:57.155Z,77.20
2019-06-20T08:32:50.670Z,80.30
2019-06-20T08:37:44.492Z,81.10
2019-06-20T08:42:39.586Z,79.90
2019-06-20T08:47:33.604Z,73.40
2019-06-20T08:52:27.962Z,62.20
2019-06-20T08:57:25.212Z,55.50
2019-06-20T09:02:19.037Z,55.90
2019-06-20T09:07:14.506Z,57.80
2019-06-20T09:17:03.333Z,68.00
2019-06-20T09:22:00.458Z,73.30
2019-06-20T09:26:55.507Z,75.80
2019-06-20T09:31:55.629Z,76.40
2019-06-20T09:36:49.267Z,78.50
2019-06-20T09:41:43.727Z,79.70
2019-06-20T09:46:43.708Z,77.80
2019-06-20T09:51:37.521Z,77.40
2019-06-20T09:56:31.912Z,75.00
2019-06-20T10:01:25.683Z,73.80
2019-06-20T10:06:19.639Z,69.00
2019-06-20T10:11:16.344Z,63.10
2019-06-20T10:16:12.378Z,48.10
2019-06-20T10:21:06.188Z,39.40
2019-06-20T10:26:00.158Z,34.50
2019-06-20T10:30:57.858Z,31.60
2019-06-20T10:35:52.623Z,29.60
2019-06-20T10:40:49.886Z,29.10
2019-06-20T10:45:45.751Z,29.10
2019-06-20T10:50:42.613Z,28.90
2019-06-20T10:55:38.017Z,28.10
2019-06-20T11:00:32.865Z,28.40
2019-06-20T11:05:27.429Z,30.00
2019-06-20T11:10:24.491Z,32.00
2019-06-20T11:15:21.204Z,36.20
2019-06-20T11:20:15.799Z,39.00
2019-06-20T11:25:11.569Z,42.40
2019-06-20T11:30:10.736Z,42.40
2019-06-20T11:35:08.494Z,43.40
2019-06-20T11:40:02.694Z,44.10
2019-06-20T11:44:58.259Z,44.50
2019-06-20T11:49:53.591Z,44.00
2019-06-20T11:54:47.650Z,44.80
2019-06-20T11:59:41.540Z,44.70
2019-06-20T12:04:35.339Z,43.80
2019-06-20T12:09:29.177Z,45.20
2019-06-20T12:19:16.071Z,49.50
2019-06-20T12:24:10.039Z,51.70
2019-06-20T12:29:03.882Z,54.30
2019-06-20T12:33:57.908Z,56.10
2019-06-20T12:38:53.508Z,57.60
2019-06-20T12:43:48.288Z,59.10
2019-06-20T12:48:42.828Z,62.10
2019-06-20T12:53:38.681Z,65.80
2019-06-20T12:58:33.366Z,67.60
2019-06-20T13:03:27.291Z,70.00
2019-06-20T13:08:22.440Z,71.30
2019-06-20T13:13:16.438Z,70.50
2019-06-20T13:18:10.770Z,70.50
2019-06-20T13:23:06.202Z,71.00
2019-06-20T13:28:00.997Z,71.00
2019-06-20T13:32:54.843Z,69.70
2019-06-20T13:37:50.139Z,69.10
2019-06-20T13:42:46.150Z,71.00
2019-06-20T13:47:43.089Z,69.40
2019-06-20T13:52:39.969Z,71.30
2019-06-20T13:57:33.380Z,71.00
2019-06-20T14:02:28.114Z,74.00
2019-06-20T14:07:21.939Z,70.90
2019-06-20T14:12:16.832Z,71.70
2019-06-20T14:17:10.846Z,71.60
2019-06-20T14:22:04.617Z,74.70
2019-06-20T14:27:02.303Z,78.70
2019-06-20T14:31:57.787Z,80.80
2019-06-20T14:36:52.203Z,80.00
2019-06-20T14:41:48.584Z,77.30
2019-06-20T14:46:42.500Z,77.10
2019-06-20T14:51:36.342Z,74.60
2019-06-20T14:56:30.489Z,72.70
2019-06-20T15:01:24.432Z,73.50
2019-06-20T15:06:18.242Z,74.40
2019-06-20T15:11:12.569Z,75.00
2019-06-20T15:16:06.645Z,74.80
2019-06-20T15:21:01.392Z,78.40
2019-06-20T15:25:56.162Z,77.00
2019-06-20T15:30:50.846Z,76.70
2019-06-20T15:35:45.472Z,76.40
2019-06-20T15:40:40.469Z,78.00
2019-06-20T15:45:35.968Z,76.20
2019-06-20T15:50:29.714Z,77.00
2019-06-20T15:55:23.829Z,76.40
2019-06-20T16:00:20.127Z,77.30
2019-06-20T16:05:14.886Z,77.60
2019-06-20T16:10:13.306Z,77.80
2019-06-20T16:15:11.404Z,77.30
2019-06-20T16:20:06.890Z,77.60
2019-06-20T16:25:01.908Z,78.90
2019-06-20T16:29:55.715Z,78.10
2019-06-20T16:34:50.801Z,78.40
2019-06-20T16:39:46.140Z,78.30
2019-06-20T16:44:39.887Z,79.50
2019-06-20T16:49:34.116Z,79.10
2019-06-20T16:54:28.745Z,79.70
2019-06-20T16:59:22.540Z,79.40
2019-06-20T17:04:16.370Z,79.80
2019-06-20T17:09:10.278Z,79.80
2019-06-20T17:14:04.690Z,80.10
2019-06-20T17:18:59.424Z,80.40
2019-06-20T17:23:53.735Z,81.10
2019-06-20T17:28:48.250Z,81.10
2019-06-20T17:33:56.883Z,82.20
2019-06-20T17:38:38.178Z,81.60
2019-06-20T17:43:32.041Z,81.90
2019-06-20T17:48:25.886Z,81.70
2019-06-20T17:53:19.924Z,80.50
2019-06-20T17:58:14.179Z,81.20
2019-06-20T18:03:08.106Z,82.20
2019-06-20T18:08:14.711Z,83.00
2019-06-20T18:17:52.548Z,83.90
2019-06-20T18:22:46.423Z,84.30
2019-06-20T18:27:40.348Z,84.60
2019-06-20T18:32:34.214Z,85.40
2019-06-20T18:37:31.789Z,85.40
2019-06-20T18:42:43.026Z,86.30
2019-06-20T18:47:37.124Z,86.60
2019-06-20T18:52:31.193Z,86.50
2019-06-20T18:57:25.086Z,87.20
2019-06-20T19:02:18.977Z,88.30
2019-06-20T19:07:12.775Z,89.10
2019-06-20T19:12:07.163Z,90.00
2019-06-20T19:17:01.031Z,90.20
2019-06-20T19:21:54.215Z,90.40
2019-06-20T19:26:46.994Z,91.10
2019-06-20T19:31:41.375Z,91.40
2019-06-20T19:36:35.190Z,91.60
2019-06-20T19:41:31.228Z,91.90
2019-06-20T19:46:27.998Z,91.90
2019-06-20T19:51:21.994Z,91.90
2019-06-20T19:56:16.660Z,92.10
2019-06-20T20:01:10.569Z,91.90
2019-06-20T20:06:04.689Z,91.90
2019-06-20T20:10:58.589Z,92.10
2019-06-20T20:15:52.372Z,92.20
2019-06-20T20:20:47.961Z,92.60
2019-06-20T20:25:43.966Z,92.30
2019-06-20T20:35:35.719Z,97.80
2019-06-20T20:40:29.062Z,99.90
2019-06-20T20:45:23.592Z,99.90
2019-06-20T20:50:17.891Z,99.90
2019-06-20T20:55:14.107Z,99.90
2019-06-20T21:00:10.911Z,99.90
2019-06-20T21:05:06.599Z,99.90
2019-06-20T21:10:01.274Z,99.90
2019-06-20T21:19:50.645Z,99.90
2019-06-20T21:24:44.425Z,99.90
2019-06-20T21:29:38.579Z,99.90
2019-06-20T21:34:33.050Z,99.90
2019-06-20T21:39:27.243Z,99.90
2019-06-20T21:44:22.259Z,99.90
2019-06-20T21:49:16.069Z,99.90
2019-06-20T21:54:10.637Z,99.90
2019-06-20T21:59:04.773Z,99.90
2019-06-20T22:03:58.515Z,99.90
2019-06-20T22:08:52.354Z,99.90
2019-06-20T22:13:51.231Z,99.90
2019-06-20T22:28:34.997Z,99.90
2019-06-20T22:33:28.807Z,99.90
2019-06-20T22:38:23.019Z,99.90
2019-06-20T22:43:18.796Z,99.90
2019-06-20T22:48:12.835Z,99.90
2019-06-20T22:53:09.629Z,99.90
2019-06-20T22:58:05.310Z,99.90
2019-06-20T23:02:59.293Z,99.90
2019-06-20T23:07:53.222Z,99.90
2019-06-20T23:12:46.971Z,99.90
2019-06-20T23:17:40.843Z,99.90
2019-06-20T23:22:34.581Z,99.90
2019-06-20T23:27:28.567Z,99.90
2019-06-20T23:32:22.619Z,99.90
2019-06-20T23:37:16.559Z,99.90
2019-06-20T23:42:10.567Z,99.90
2019-06-20T23:47:04.548Z,99.90
2019-06-20T23:52:00.311Z,99.90
2019-06-20T23:56:54.230Z,99.90
